Hot Springs, North Carolina
Current Conditions -  °F | °C
As of 11:54 PM on Wednesday 22 Oct 2014 (Local Time) from KAVL Reporting Station
Clear Clear  
Wind Chill: 38°   Ceiling: Unl
Heat Index: 45°   Visibility: 10mi
Dew Point: 36°   Wind: 17mph
Humidity: 71%   Direction: 340°NNW
Pressure: 30.16"   Gusts: NA
Location:  35.89°N, 82.83°W
Report Text: KAVL 230354Z AUTO 34015KT 10SM CLR 07/02 A3016 RMK AO2 SLP207 T00720022
Loading
Personal Weather Stations






























Interactive Weather Map
Tropical Storm Tracking
New forecast layout! Learn more

10-Day Weather Forecast

Advertisements
Track Severe Weather on mobile